createdAt,value
2022-08-17T00:00:00.640Z,20.9
2022-08-17T00:03:00.599Z,20.9
2022-08-17T00:06:00.653Z,20.9
2022-08-17T00:09:00.730Z,20.4
2022-08-17T00:12:42.458Z,20.4
2022-08-17T00:15:00.664Z,20.3
2022-08-17T00:18:00.696Z,20.3
2022-08-17T00:21:00.638Z,20.3
2022-08-17T00:24:00.607Z,20.3
2022-08-17T00:27:00.638Z,20.3
2022-08-17T00:30:00.664Z,20.3
2022-08-17T00:33:16.999Z,20.3
2022-08-17T00:36:00.613Z,19.8
2022-08-17T00:39:00.639Z,19.8
2022-08-17T00:42:00.665Z,19.8
2022-08-17T00:45:00.647Z,19.8
2022-08-17T00:48:00.624Z,19.8
2022-08-17T00:51:00.623Z,19.8
2022-08-17T00:54:00.633Z,19.8
2022-08-17T00:57:00.609Z,19.8
2022-08-17T01:00:03.638Z,19.8
2022-08-17T01:03:00.652Z,19.8
2022-08-17T01:06:00.647Z,19.8
2022-08-17T01:09:00.655Z,19.8
2022-08-17T01:12:00.618Z,19.4
2022-08-17T01:15:00.629Z,19.3
2022-08-17T01:18:00.693Z,19.3
2022-08-17T01:21:00.677Z,19.3
2022-08-17T01:24:00.646Z,19.3
2022-08-17T01:27:00.609Z,19.3
2022-08-17T01:30:00.653Z,19.3
2022-08-17T01:33:00.607Z,19.3
2022-08-17T01:36:00.636Z,19.3
2022-08-17T01:39:00.609Z,19.3
2022-08-17T01:42:00.671Z,19.3
2022-08-17T01:45:00.659Z,18.8
2022-08-17T01:48:00.674Z,18.8
2022-08-17T01:51:00.675Z,18.8
2022-08-17T01:54:00.634Z,18.8
2022-08-17T01:57:00.623Z,18.8
2022-08-17T02:00:00.724Z,18.8
2022-08-17T02:03:00.644Z,18.8
2022-08-17T02:06:00.628Z,18.8
2022-08-17T02:09:03.743Z,18.8
2022-08-17T02:12:39.766Z,18.5
2022-08-17T02:15:00.610Z,18.5
2022-08-17T02:18:00.653Z,18.5
2022-08-17T02:21:00.676Z,18.3
2022-08-17T02:24:00.710Z,18.3
2022-08-17T02:27:00.672Z,18.3
2022-08-17T02:30:00.656Z,18.3
2022-08-17T02:33:00.625Z,18.3
2022-08-17T02:36:00.613Z,18.3
2022-08-17T02:39:00.622Z,18.3
2022-08-17T02:42:00.616Z,18.3
2022-08-17T02:45:00.677Z,18.3
2022-08-17T02:48:00.648Z,18.3
2022-08-17T02:51:00.615Z,18.3
2022-08-17T02:54:41.882Z,18.3
2022-08-17T02:57:00.648Z,17.8
2022-08-17T03:00:00.681Z,17.8
2022-08-17T03:03:00.638Z,17.8
2022-08-17T03:06:00.634Z,17.8
2022-08-17T03:09:00.616Z,17.8
2022-08-17T03:12:00.636Z,17.7
2022-08-17T03:15:00.617Z,17.7
2022-08-17T03:18:00.662Z,17.7
2022-08-17T03:21:00.619Z,17.7
2022-08-17T03:24:00.654Z,17.7
2022-08-17T03:27:00.620Z,17.7
2022-08-17T03:30:00.656Z,17.7
2022-08-17T03:33:00.648Z,17.7
2022-08-17T03:36:00.634Z,17.7
2022-08-17T03:39:00.618Z,17.7
2022-08-17T03:42:00.619Z,17.7
2022-08-17T03:45:00.642Z,17.7
2022-08-17T03:48:00.618Z,17.7
2022-08-17T03:51:00.576Z,17.7
2022-08-17T03:54:00.805Z,17.7
2022-08-17T03:57:00.660Z,17.7
2022-08-17T04:00:00.757Z,17.7
2022-08-17T04:03:00.746Z,17.7
2022-08-17T04:06:00.676Z,17.3
2022-08-17T04:09:00.662Z,17.3
2022-08-17T04:12:04.667Z,17.3
2022-08-17T04:15:00.676Z,17.3
2022-08-17T04:18:00.693Z,17.3
2022-08-17T04:21:00.657Z,17.3
2022-08-17T04:24:00.694Z,17.3
2022-08-17T04:27:00.702Z,17.3
2022-08-17T04:30:00.654Z,17.3
2022-08-17T04:33:11.242Z,17.3
2022-08-17T04:36:00.705Z,17.3
2022-08-17T04:39:00.659Z,17.3
2022-08-17T04:42:00.642Z,17.3
2022-08-17T04:45:00.840Z,17.3
2022-08-17T04:48:00.706Z,17.3
2022-08-17T04:51:00.697Z,17.3
2022-08-17T04:54:00.732Z,17.3
2022-08-17T04:57:00.701Z,17.1
2022-08-17T05:00:00.749Z,17.1
2022-08-17T05:03:00.713Z,17.1
2022-08-17T05:06:00.779Z,17.2
2022-08-17T05:09:00.735Z,17.2
2022-08-17T05:12:00.784Z,17.2
2022-08-17T05:15:00.635Z,17.2
2022-08-17T05:18:00.714Z,17.2
2022-08-17T05:21:00.705Z,17.2
2022-08-17T05:24:00.696Z,17.2
2022-08-17T05:27:06.911Z,17.2
2022-08-17T05:30:00.912Z,17.2
2022-08-17T05:33:00.663Z,17.2
2022-08-17T05:36:00.666Z,17.2
2022-08-17T05:39:00.690Z,17.6
2022-08-17T05:42:00.654Z,17.6
2022-08-17T05:45:00.690Z,17.6
2022-08-17T05:48:00.678Z,17.6
2022-08-17T05:51:00.645Z,17.6
2022-08-17T05:54:00.730Z,17.6
2022-08-17T05:57:00.657Z,17.6
2022-08-17T06:00:00.736Z,17.9
2022-08-17T06:03:00.711Z,18.1
2022-08-17T06:06:00.659Z,18.1
2022-08-17T06:09:00.693Z,18.1
2022-08-17T06:12:00.734Z,18.1
2022-08-17T06:15:00.690Z,18.1
2022-08-17T06:18:00.696Z,18.1
2022-08-17T06:21:00.691Z,18.6
2022-08-17T06:24:00.694Z,18.6
2022-08-17T06:27:00.702Z,18.6
2022-08-17T06:30:00.744Z,18.6
2022-08-17T06:33:00.722Z,18.6
2022-08-17T06:36:01.665Z,19.1
2022-08-17T06:39:00.718Z,19.1
2022-08-17T06:42:00.732Z,19.1
2022-08-17T06:45:00.726Z,19.1
2022-08-17T06:48:00.706Z,19.6
2022-08-17T06:51:00.649Z,19.6
2022-08-17T06:54:00.695Z,19.6
2022-08-17T06:57:00.655Z,20.2
2022-08-17T07:00:01.887Z,20.1
2022-08-17T07:03:00.657Z,20.1
2022-08-17T07:06:00.721Z,20.1
2022-08-17T07:09:00.721Z,20.1
2022-08-17T07:12:00.676Z,20.1
2022-08-17T07:15:00.706Z,20.1
2022-08-17T07:18:01.308Z,21.2
2022-08-17T07:21:00.715Z,21.2
2022-08-17T07:24:00.700Z,21.7
2022-08-17T07:27:00.657Z,21.7
2022-08-17T07:30:00.720Z,21.7
2022-08-17T07:33:00.654Z,21.7
2022-08-17T07:36:00.722Z,22.2
2022-08-17T07:39:00.682Z,22.2
2022-08-17T07:42:00.670Z,22.2
2022-08-17T07:45:00.705Z,22.2
2022-08-17T07:48:00.703Z,22.7
2022-08-17T07:51:00.788Z,22.8
2022-08-17T07:54:14.699Z,22.8
2022-08-17T07:57:00.645Z,23.2
2022-08-17T08:00:01.618Z,23.2
2022-08-17T08:03:00.714Z,23.2
2022-08-17T08:06:00.663Z,23.7
2022-08-17T08:09:00.720Z,23.7
2022-08-17T08:12:00.652Z,23.7
2022-08-17T08:15:00.685Z,24.2
2022-08-17T08:18:00.670Z,24.2
2022-08-17T08:21:00.678Z,24.2
2022-08-17T08:24:00.779Z,24.2
2022-08-17T08:27:00.715Z,24.2
2022-08-17T08:30:00.788Z,24.2
2022-08-17T08:33:00.702Z,24.2
2022-08-17T08:36:00.696Z,25.3
2022-08-17T08:39:00.642Z,25.3
2022-08-17T08:42:00.704Z,25.3
2022-08-17T08:45:05.546Z,25.8
2022-08-17T08:48:05.853Z,25.9
2022-08-17T08:51:00.667Z,25.9
2022-08-17T08:54:00.710Z,26.3
2022-08-17T08:57:27.942Z,26.3
2022-08-17T09:00:00.842Z,26.3
2022-08-17T09:03:00.665Z,26.8
2022-08-17T09:06:00.762Z,26.8
2022-08-17T09:09:00.809Z,26.8
2022-08-17T09:12:03.766Z,26.8
2022-08-17T09:15:00.643Z,27.3
2022-08-17T09:19:04.227Z,27.3
2022-08-17T09:21:00.685Z,27.3
2022-08-17T09:24:00.686Z,27.3
2022-08-17T09:27:00.694Z,27.3
2022-08-17T09:30:00.794Z,27.9
2022-08-17T09:33:00.697Z,27.9
2022-08-17T09:36:00.734Z,27.9
2022-08-17T09:39:00.674Z,28.1
2022-08-17T09:42:00.748Z,28.1
2022-08-17T09:45:00.635Z,28.1
2022-08-17T09:48:00.708Z,28.4
2022-08-17T09:51:06.366Z,28.4
2022-08-17T09:57:30.121Z,28.4
2022-08-17T10:00:00.783Z,28.4
2022-08-17T10:03:00.744Z,28.4
2022-08-17T10:06:00.768Z,28.9
2022-08-17T10:09:00.694Z,28.9
2022-08-17T10:12:00.671Z,28.9
2022-08-17T10:15:09.402Z,28.9
2022-08-17T10:18:00.679Z,28.9
2022-08-17T10:21:00.662Z,28.9
2022-08-17T10:24:01.186Z,28.9
2022-08-17T10:27:00.755Z,28.9
2022-08-17T10:30:00.818Z,29.4
2022-08-17T10:33:00.679Z,29.4
2022-08-17T10:36:00.745Z,29.4
2022-08-17T10:39:00.672Z,29.4
2022-08-17T10:42:00.685Z,29.4
2022-08-17T10:45:00.664Z,29.4
2022-08-17T10:48:06.776Z,29.4
2022-08-17T10:51:00.667Z,29.4
2022-08-17T10:54:00.740Z,29.4
2022-08-17T10:57:00.681Z,29.9
2022-08-17T11:00:00.726Z,29.9
2022-08-17T11:03:00.826Z,29.9
2022-08-17T11:06:00.998Z,29.9
2022-08-17T11:09:00.822Z,29.9
2022-08-17T11:12:00.712Z,29.9
2022-08-17T11:15:00.704Z,29.9
2022-08-17T11:18:00.679Z,29.9
2022-08-17T11:21:00.717Z,29.9
2022-08-17T11:24:00.696Z,29.9
2022-08-17T11:27:00.662Z,29.9
2022-08-17T11:30:02.976Z,29.9
2022-08-17T11:33:00.713Z,29.9
2022-08-17T11:36:00.698Z,30.1
2022-08-17T11:39:00.708Z,30.1
2022-08-17T11:42:00.729Z,30.1
2022-08-17T11:45:00.699Z,30.2
2022-08-17T11:48:28.062Z,30.2
2022-08-17T11:51:00.626Z,30.2
2022-08-17T11:54:33.584Z,30.2
2022-08-17T11:57:00.697Z,30.2
2022-08-17T12:00:00.820Z,30.2
2022-08-17T12:03:00.695Z,30.2
2022-08-17T12:06:00.681Z,30.2
2022-08-17T12:09:00.716Z,30.2
2022-08-17T12:12:14.183Z,30.2
2022-08-17T12:15:11.998Z,30.2
2022-08-17T12:18:00.686Z,30.2
2022-08-17T12:21:00.683Z,30.2
2022-08-17T12:24:00.693Z,30.2
2022-08-17T12:27:00.666Z,30.2
2022-08-17T12:30:00.770Z,30.2
2022-08-17T12:33:00.600Z,30.4
2022-08-17T12:36:00.702Z,30.4
2022-08-17T12:39:14.646Z,30.4
2022-08-17T12:42:03.093Z,30.4
2022-08-17T12:45:00.714Z,30.4
2022-08-17T12:48:00.728Z,30.4
2022-08-17T12:51:00.651Z,30.4
2022-08-17T12:54:00.682Z,30.4
2022-08-17T12:57:00.649Z,30.4
2022-08-17T13:00:00.741Z,30.4
2022-08-17T13:03:00.635Z,30.4
2022-08-17T13:06:00.694Z,30.4
2022-08-17T13:09:00.640Z,30.4
2022-08-17T13:12:00.672Z,30.4
2022-08-17T13:15:00.695Z,30.4
2022-08-17T13:18:00.668Z,30.4
2022-08-17T13:21:00.692Z,30.4
2022-08-17T13:24:00.676Z,30.4
2022-08-17T13:27:00.665Z,30.8
2022-08-17T13:30:00.750Z,30.8
2022-08-17T13:33:04.989Z,30.8
2022-08-17T13:36:00.656Z,30.8
2022-08-17T13:39:00.668Z,30.8
2022-08-17T13:42:00.655Z,30.8
2022-08-17T13:45:00.667Z,30.8
2022-08-17T13:48:00.679Z,30.8
2022-08-17T13:51:00.683Z,30.8
2022-08-17T13:54:00.733Z,30.8
2022-08-17T13:57:00.666Z,30.8
2022-08-17T14:00:00.777Z,30.8
2022-08-17T14:03:00.702Z,30.8
2022-08-17T14:06:00.691Z,30.8
2022-08-17T14:09:00.649Z,30.8
2022-08-17T14:12:00.654Z,30.8
2022-08-17T14:15:00.730Z,30.8
2022-08-17T14:18:00.712Z,30.8
2022-08-17T14:21:00.662Z,30.8
2022-08-17T14:24:00.672Z,30.8
2022-08-17T14:27:00.743Z,30.8
2022-08-17T14:30:00.947Z,30.8
2022-08-17T14:33:00.677Z,30.8
2022-08-17T14:36:00.668Z,30.8
2022-08-17T14:39:00.769Z,30.8
2022-08-17T14:42:00.711Z,30.8
2022-08-17T14:45:00.733Z,30.8
2022-08-17T14:48:00.693Z,30.8
2022-08-17T14:51:00.632Z,30.8
2022-08-17T14:54:00.669Z,30.8
2022-08-17T14:57:23.757Z,30.8
2022-08-17T15:00:00.771Z,30.8
2022-08-17T15:03:00.626Z,30.8
2022-08-17T15:06:00.697Z,30.8
2022-08-17T15:09:00.637Z,30.8
2022-08-17T15:12:00.735Z,30.8
2022-08-17T15:15:00.846Z,30.8
2022-08-17T15:18:01.383Z,30.8
2022-08-17T15:21:00.660Z,30.4
2022-08-17T15:24:00.676Z,30.4
2022-08-17T15:27:00.653Z,30.4
2022-08-17T15:30:00.735Z,30.4
2022-08-17T15:33:00.910Z,30.4
2022-08-17T15:36:00.706Z,30.4
2022-08-17T15:39:00.671Z,30.4
2022-08-17T15:42:00.729Z,29.8
2022-08-17T15:45:00.655Z,29.8
2022-08-17T15:48:01.471Z,29.8
2022-08-17T15:51:00.646Z,29.8
2022-08-17T15:54:17.321Z,29.8
2022-08-17T15:57:00.649Z,29.8
2022-08-17T16:00:00.937Z,29.8
2022-08-17T16:04:01.731Z,29.8
2022-08-17T16:06:00.765Z,29.8
2022-08-17T16:09:00.714Z,29.8
2022-08-17T16:12:01.063Z,29.8
2022-08-17T16:15:00.705Z,29.6
2022-08-17T16:18:00.935Z,29.6
2022-08-17T16:21:00.741Z,29.6
2022-08-17T16:24:00.690Z,29.6
2022-08-17T16:27:00.741Z,29.6
2022-08-17T16:30:00.790Z,29.6
2022-08-17T16:33:00.674Z,29.6
2022-08-17T16:36:00.748Z,29.6
2022-08-17T16:39:00.893Z,29.6
2022-08-17T16:42:00.725Z,29.6
2022-08-17T16:45:00.798Z,29.6
2022-08-17T16:48:00.746Z,29.6
2022-08-17T16:51:04.368Z,29.6
2022-08-17T16:54:00.676Z,29.6
2022-08-17T16:57:00.675Z,29.1
2022-08-17T17:00:00.787Z,29.1
2022-08-17T17:03:00.755Z,29.1
2022-08-17T17:06:00.750Z,29.1
2022-08-17T17:09:00.678Z,29.1
2022-08-17T17:12:00.706Z,29.1
2022-08-17T17:15:00.628Z,28.6
2022-08-17T17:18:03.230Z,28.6
2022-08-17T17:21:00.701Z,28.6
2022-08-17T17:24:00.680Z,28.6
2022-08-17T17:27:00.652Z,28.6
2022-08-17T17:30:00.732Z,28.6
2022-08-17T17:33:00.724Z,28.6
2022-08-17T17:36:00.741Z,28.6
2022-08-17T17:39:00.685Z,28.6
2022-08-17T17:42:00.714Z,28.6
2022-08-17T17:45:00.704Z,28.6
2022-08-17T17:48:00.670Z,28.6
2022-08-17T17:51:00.737Z,28.6
2022-08-17T17:54:00.704Z,28.6
2022-08-17T17:57:00.677Z,28.1
2022-08-17T18:00:00.777Z,28.1
2022-08-17T18:03:00.685Z,28.1
2022-08-17T18:06:01.491Z,28.1
2022-08-17T18:09:00.720Z,27.9
2022-08-17T18:12:00.752Z,27.9
2022-08-17T18:15:00.736Z,27.9
2022-08-17T18:18:00.671Z,27.9
2022-08-17T18:21:00.674Z,27.9
2022-08-17T18:24:00.767Z,27.6
2022-08-17T18:27:00.728Z,27.6
2022-08-17T18:30:05.816Z,27.6
2022-08-17T18:33:00.673Z,27.6
2022-08-17T18:36:01.758Z,27.6
2022-08-17T18:39:00.733Z,27.6
2022-08-17T18:42:00.644Z,27.6
2022-08-17T18:45:00.669Z,27.6
2022-08-17T18:48:00.627Z,27.6
2022-08-17T18:51:00.672Z,27.6
2022-08-17T18:54:00.623Z,27.6
2022-08-17T18:57:00.648Z,27.6
2022-08-17T19:00:00.667Z,27.3
2022-08-17T19:03:00.769Z,27.3
2022-08-17T19:06:02.599Z,27.3
2022-08-17T19:09:00.619Z,27.3
2022-08-17T19:12:00.663Z,27.3
2022-08-17T19:15:00.635Z,27.3
2022-08-17T19:18:00.662Z,27.3
2022-08-17T19:21:00.665Z,27.3
2022-08-17T19:24:00.685Z,27.3
2022-08-17T19:27:00.626Z,26.8
2022-08-17T19:30:08.018Z,26.8
2022-08-17T19:33:00.619Z,26.8
2022-08-17T19:36:00.647Z,26.8
2022-08-17T19:39:00.606Z,26.8
2022-08-17T19:42:00.646Z,26.8
2022-08-17T19:45:00.615Z,26.3
2022-08-17T19:48:03.459Z,26.3
2022-08-17T19:51:00.639Z,26.3
2022-08-17T19:54:07.337Z,26.3
2022-08-17T19:57:02.028Z,26
2022-08-17T20:00:00.710Z,26
2022-08-17T20:03:06.279Z,26
2022-08-17T20:06:13.645Z,26
2022-08-17T20:09:00.622Z,26
2022-08-17T20:12:00.659Z,26
2022-08-17T20:15:00.645Z,26
2022-08-17T20:18:00.657Z,26
2022-08-17T20:21:00.606Z,26
2022-08-17T20:24:00.634Z,25.3
2022-08-17T20:27:00.672Z,25.3
2022-08-17T20:30:00.680Z,25.3
2022-08-17T20:33:00.641Z,25.3
2022-08-17T20:36:00.635Z,25.3
2022-08-17T20:39:00.601Z,25.3
2022-08-17T20:42:02.950Z,24.8
2022-08-17T20:45:00.909Z,24.8
2022-08-17T20:48:37.799Z,24.8
2022-08-17T20:51:00.673Z,24.8
2022-08-17T20:54:00.674Z,24.2
2022-08-17T20:57:00.673Z,24.1
2022-08-17T21:00:00.679Z,24.1
2022-08-17T21:03:00.778Z,24.1
2022-08-17T21:06:00.927Z,23.7
2022-08-17T21:09:00.623Z,23.7
2022-08-17T21:12:05.392Z,23.7
2022-08-17T21:15:00.681Z,23.7
2022-08-17T21:18:00.613Z,23.7
2022-08-17T21:21:00.614Z,23.7
2022-08-17T21:24:00.669Z,23.7
2022-08-17T21:27:00.765Z,23.7
2022-08-17T21:30:00.651Z,23.7
2022-08-17T21:33:00.616Z,23.2
2022-08-17T21:36:00.893Z,23.2
2022-08-17T21:39:00.619Z,23.2
2022-08-17T21:42:00.672Z,23.2
2022-08-17T21:45:00.642Z,23.2
2022-08-17T21:48:00.676Z,23.2
2022-08-17T21:51:00.616Z,23.2
2022-08-17T21:54:00.618Z,22.7
2022-08-17T21:57:00.655Z,22.7
2022-08-17T22:00:01.382Z,22.7
2022-08-17T22:03:00.657Z,22.7
2022-08-17T22:06:00.616Z,22.7
2022-08-17T22:09:00.705Z,22.7
2022-08-17T22:12:00.620Z,22.7
2022-08-17T22:15:00.638Z,22.7
2022-08-17T22:18:00.628Z,22.7
2022-08-17T22:21:00.589Z,22.7
2022-08-17T22:24:00.669Z,22.7
2022-08-17T22:27:00.628Z,22.7
2022-08-17T22:30:00.635Z,21.8
2022-08-17T22:33:00.589Z,21.8
2022-08-17T22:36:00.640Z,21.8
2022-08-17T22:39:00.607Z,21.8
2022-08-17T22:42:00.642Z,21.8
2022-08-17T22:45:00.586Z,21.4
2022-08-17T22:48:00.603Z,21.4
2022-08-17T22:51:00.614Z,21.3
2022-08-17T22:54:00.609Z,21.3
2022-08-17T22:57:00.676Z,21.3
2022-08-17T23:00:00.671Z,21.3
2022-08-17T23:03:00.751Z,21.3
2022-08-17T23:06:00.630Z,21.3
2022-08-17T23:09:00.631Z,21.3
2022-08-17T23:12:00.618Z,21.3
2022-08-17T23:15:00.740Z,20.9
2022-08-17T23:18:00.628Z,20.9
2022-08-17T23:21:00.613Z,20.9
2022-08-17T23:24:00.649Z,20.9
2022-08-17T23:27:00.609Z,20.9
2022-08-17T23:30:00.645Z,20.9
2022-08-17T23:33:00.624Z,20.9
2022-08-17T23:36:00.679Z,20.9
2022-08-17T23:39:00.633Z,20.3
2022-08-17T23:42:00.615Z,20.3
2022-08-17T23:45:00.633Z,20.3
2022-08-17T23:48:00.731Z,20.3
2022-08-17T23:51:00.579Z,20.3
2022-08-17T23:54:08.095Z,20.3
2022-08-17T23:57:00.635Z,20.3
